Aérodrome :
LOGIN :

S'inscrire | Disclaimer

   EN    FR    IT 

 










Légende :    VFR   VFR Marginal   IFR   IFR Intensif   IFR Très Intensif
Visi : 
Plafond : 
>= 8 km
>= 3000ft
5 à 8 km
1000 à 3000 ft
1500m à 5 km
500 à 1000 ft
800 à 1500m
200 à 500 ft
< 800m
< 200 ft
Symboles :   Orages  Brouillard  Fortes neiges  Fortes précipitations  Vent > 20 kt
SIGMETs :   Divers  Orages  Givrage  Turbulence  Onde Orograph.  Cendres Volcan.






- Altitude de l'aérodrome : 38 ft
- Code IATA : BOH


EGHH - Bournemouth

DERNIER METAR :
  • 201850Z 13011KT 9999 FEW021 BKN027 09/04 Q1006

METARs EXPIRÉS :
  • 201820Z 11010KT 9999 NSC 08/04 Q1006
  • 201750Z 11010KT 9999 BKN030 08/04 Q1006
  • 201720Z 11009KT 9999 SCT025 BKN030 07/04 Q1006
  • 201650Z 11009KT 9999 SCT025 BKN030 07/03 Q1006
  • 201620Z 11012KT 9999 SCT025 BKN030 08/03 Q1007

TAF TAF EGHH
Valide du 20 à 18h jusqu'au 21 à 03h UTC


201658Z 2018/2103 13009KT 9999 SCT040
ATIS : +44 1202 364 151
Météo : +44 1202 364 158 (TAF)



MET'MAP, la Météo Aéronautique d'un coup d'oeil ! - Copyright ORBIFLY Décembre 2007 - Disclaimer

ORBIFLY MET'MAP TEAM :

Programmation & Développement : Alexandra Zaïnal
Conception & Développement : Baudouin d'Aumeries
Co-Programmation & Développement : Marc-Olivier Méhu
Soutien technique & logistique : Manuel Goepfert

Contact : metmap@orbifly.com




SOURCES & CREDITS :

   NOAA